sensor_id;sensor_type;location;lat;lon;timestamp;P1;durP1;ratioP1;P2;durP2;ratioP2
32613;SDS011;19031;51.400;6.770;2023-07-29T00:01:46;4.38;;;2.97;;
32613;SDS011;19031;51.400;6.770;2023-07-29T00:04:11;6.97;;;2.47;;
32613;SDS011;19031;51.400;6.770;2023-07-29T00:06:37;3.10;;;2.13;;
32613;SDS011;19031;51.400;6.770;2023-07-29T00:09:05;5.13;;;2.05;;
32613;SDS011;19031;51.400;6.770;2023-07-29T00:11:31;3.65;;;1.70;;
32613;SDS011;19031;51.400;6.770;2023-07-29T00:14:01;3.67;;;2.08;;
32613;SDS011;19031;51.400;6.770;2023-07-29T00:16:27;3.58;;;2.28;;
32613;SDS011;19031;51.400;6.770;2023-07-29T00:18:56;4.65;;;2.47;;
32613;SDS011;19031;51.400;6.770;2023-07-29T00:21:21;3.00;;;2.17;;
32613;SDS011;19031;51.400;6.770;2023-07-29T00:23:47;2.97;;;1.67;;
32613;SDS011;19031;51.400;6.770;2023-07-29T00:26:16;6.82;;;2.55;;
32613;SDS011;19031;51.400;6.770;2023-07-29T00:28:41;5.68;;;1.98;;
32613;SDS011;19031;51.400;6.770;2023-07-29T00:31:07;4.30;;;2.70;;
32613;SDS011;19031;51.400;6.770;2023-07-29T00:33:32;7.53;;;2.70;;
32613;SDS011;19031;51.400;6.770;2023-07-29T00:36:00;5.68;;;2.47;;
32613;SDS011;19031;51.400;6.770;2023-07-29T00:38:27;4.15;;;2.00;;
32613;SDS011;19031;51.400;6.770;2023-07-29T00:40:57;5.50;;;3.15;;
32613;SDS011;19031;51.400;6.770;2023-07-29T00:43:24;7.90;;;3.22;;
32613;SDS011;19031;51.400;6.770;2023-07-29T00:45:50;5.07;;;3.30;;
32613;SDS011;19031;51.400;6.770;2023-07-29T00:48:15;5.80;;;3.50;;
32613;SDS011;19031;51.400;6.770;2023-07-29T00:50:41;4.05;;;2.88;;
32613;SDS011;19031;51.400;6.770;2023-07-29T00:53:06;4.13;;;3.35;;
32613;SDS011;19031;51.400;6.770;2023-07-29T00:55:32;10.90;;;3.20;;
32613;SDS011;19031;51.400;6.770;2023-07-29T00:58:01;5.30;;;3.05;;
32613;SDS011;19031;51.400;6.770;2023-07-29T01:00:28;5.57;;;2.53;;
32613;SDS011;19031;51.400;6.770;2023-07-29T01:02:53;6.80;;;2.33;;
32613;SDS011;19031;51.400;6.770;2023-07-29T01:05:19;4.30;;;2.90;;
32613;SDS011;19031;51.400;6.770;2023-07-29T01:13:57;3.78;;;3.13;;
32613;SDS011;19031;51.400;6.770;2023-07-29T01:16:21;4.65;;;3.08;;
32613;SDS011;19031;51.400;6.770;2023-07-29T01:18:54;5.10;;;3.35;;
32613;SDS011;19031;51.400;6.770;2023-07-29T01:21:20;4.80;;;3.15;;
32613;SDS011;19031;51.400;6.770;2023-07-29T01:23:47;6.38;;;3.00;;
32613;SDS011;19031;51.400;6.770;2023-07-29T01:26:12;5.00;;;2.75;;
32613;SDS011;19031;51.400;6.770;2023-07-29T01:28:41;6.00;;;3.75;;
32613;SDS011;19031;51.400;6.770;2023-07-29T01:31:09;6.18;;;3.20;;
32613;SDS011;19031;51.400;6.770;2023-07-29T01:33:40;7.25;;;4.00;;
32613;SDS011;19031;51.400;6.770;2023-07-29T01:36:15;6.55;;;3.65;;
32613;SDS011;19031;51.400;6.770;2023-07-29T01:38:48;5.55;;;3.60;;
32613;SDS011;19031;51.400;6.770;2023-07-29T01:41:15;10.00;;;3.80;;
32613;SDS011;19031;51.400;6.770;2023-07-29T01:43:42;5.43;;;3.33;;
32613;SDS011;19031;51.400;6.770;2023-07-29T01:46:09;7.03;;;3.65;;
32613;SDS011;19031;51.400;6.770;2023-07-29T01:48:36;6.60;;;3.53;;
32613;SDS011;19031;51.400;6.770;2023-07-29T01:51:02;9.75;;;3.75;;
32613;SDS011;19031;51.400;6.770;2023-07-29T01:53:28;6.47;;;3.88;;
32613;SDS011;19031;51.400;6.770;2023-07-29T01:55:56;6.95;;;3.50;;
32613;SDS011;19031;51.400;6.770;2023-07-29T01:58:22;4.32;;;3.25;;
32613;SDS011;19031;51.400;6.770;2023-07-29T02:00:48;3.83;;;2.83;;
32613;SDS011;19031;51.400;6.770;2023-07-29T02:03:14;7.00;;;3.30;;
32613;SDS011;19031;51.400;6.770;2023-07-29T02:05:39;3.83;;;3.00;;
32613;SDS011;19031;51.400;6.770;2023-07-29T02:08:07;6.43;;;3.60;;
32613;SDS011;19031;51.400;6.770;2023-07-29T02:10:33;10.73;;;3.80;;
32613;SDS011;19031;51.400;6.770;2023-07-29T02:12:59;7.50;;;3.80;;
32613;SDS011;19031;51.400;6.770;2023-07-29T02:15:24;7.88;;;3.78;;
32613;SDS011;19031;51.400;6.770;2023-07-29T02:17:50;5.05;;;3.78;;
32613;SDS011;19031;51.400;6.770;2023-07-29T02:20:16;6.75;;;4.30;;
32613;SDS011;19031;51.400;6.770;2023-07-29T02:22:42;9.20;;;3.70;;
32613;SDS011;19031;51.400;6.770;2023-07-29T02:25:08;10.32;;;4.03;;
32613;SDS011;19031;51.400;6.770;2023-07-29T02:27:36;4.90;;;3.42;;
32613;SDS011;19031;51.400;6.770;2023-07-29T02:30:02;6.07;;;3.75;;
32613;SDS011;19031;51.400;6.770;2023-07-29T02:32:28;5.88;;;3.75;;
32613;SDS011;19031;51.400;6.770;2023-07-29T02:34:54;8.88;;;3.85;;
32613;SDS011;19031;51.400;6.770;2023-07-29T02:37:19;5.70;;;3.65;;
32613;SDS011;19031;51.400;6.770;2023-07-29T02:39:45;5.88;;;3.95;;
32613;SDS011;19031;51.400;6.770;2023-07-29T02:42:11;6.78;;;4.05;;
32613;SDS011;19031;51.400;6.770;2023-07-29T02:44:36;6.68;;;3.35;;
32613;SDS011;19031;51.400;6.770;2023-07-29T02:47:02;7.10;;;4.03;;
32613;SDS011;19031;51.400;6.770;2023-07-29T02:49:28;8.27;;;3.90;;
32613;SDS011;19031;51.400;6.770;2023-07-29T02:51:57;7.60;;;4.32;;
32613;SDS011;19031;51.400;6.770;2023-07-29T02:54:23;9.52;;;4.05;;
32613;SDS011;19031;51.400;6.770;2023-07-29T02:56:49;7.15;;;3.88;;
32613;SDS011;19031;51.400;6.770;2023-07-29T02:59:15;6.43;;;4.15;;
32613;SDS011;19031;51.400;6.770;2023-07-29T03:01:41;5.38;;;3.50;;
32613;SDS011;19031;51.400;6.770;2023-07-29T03:04:07;6.63;;;3.47;;
32613;SDS011;19031;51.400;6.770;2023-07-29T03:06:33;7.07;;;3.95;;
32613;SDS011;19031;51.400;6.770;2023-07-29T03:09:02;6.43;;;3.92;;
32613;SDS011;19031;51.400;6.770;2023-07-29T03:11:27;5.50;;;3.28;;
32613;SDS011;19031;51.400;6.770;2023-07-29T03:13:53;7.38;;;3.45;;
32613;SDS011;19031;51.400;6.770;2023-07-29T03:16:22;4.75;;;3.22;;
32613;SDS011;19031;51.400;6.770;2023-07-29T03:18:48;10.75;;;4.75;;
32613;SDS011;19031;51.400;6.770;2023-07-29T03:21:14;5.68;;;4.78;;
32613;SDS011;19031;51.400;6.770;2023-07-29T03:23:40;6.90;;;4.13;;
32613;SDS011;19031;51.400;6.770;2023-07-29T03:26:06;14.15;;;5.43;;
32613;SDS011;19031;51.400;6.770;2023-07-29T03:28:35;18.77;;;6.30;;
32613;SDS011;19031;51.400;6.770;2023-07-29T03:31:05;14.23;;;5.72;;
32613;SDS011;19031;51.400;6.770;2023-07-29T03:33:31;10.98;;;5.78;;
32613;SDS011;19031;51.400;6.770;2023-07-29T03:35:57;9.70;;;5.63;;
32613;SDS011;19031;51.400;6.770;2023-07-29T03:38:22;9.07;;;5.10;;
32613;SDS011;19031;51.400;6.770;2023-07-29T03:40:48;9.25;;;5.82;;
32613;SDS011;19031;51.400;6.770;2023-07-29T03:43:13;5.88;;;4.32;;
32613;SDS011;19031;51.400;6.770;2023-07-29T03:45:39;5.88;;;3.85;;
32613;SDS011;19031;51.400;6.770;2023-07-29T03:48:05;7.00;;;4.22;;
32613;SDS011;19031;51.400;6.770;2023-07-29T03:50:33;7.28;;;5.05;;
32613;SDS011;19031;51.400;6.770;2023-07-29T03:53:04;6.65;;;4.28;;
32613;SDS011;19031;51.400;6.770;2023-07-29T03:55:30;8.40;;;4.65;;
32613;SDS011;19031;51.400;6.770;2023-07-29T03:57:57;6.30;;;4.18;;
32613;SDS011;19031;51.400;6.770;2023-07-29T04:00:23;9.70;;;4.32;;
32613;SDS011;19031;51.400;6.770;2023-07-29T04:02:49;6.45;;;4.00;;
32613;SDS011;19031;51.400;6.770;2023-07-29T04:05:15;6.28;;;3.88;;
32613;SDS011;19031;51.400;6.770;2023-07-29T04:07:41;5.05;;;3.45;;
32613;SDS011;19031;51.400;6.770;2023-07-29T04:10:10;9.98;;;4.60;;
32613;SDS011;19031;51.400;6.770;2023-07-29T04:12:36;5.95;;;4.00;;
32613;SDS011;19031;51.400;6.770;2023-07-29T04:15:02;5.57;;;3.40;;
32613;SDS011;19031;51.400;6.770;2023-07-29T04:17:28;6.38;;;3.50;;
32613;SDS011;19031;51.400;6.770;2023-07-29T04:19:53;6.78;;;3.92;;
32613;SDS011;19031;51.400;6.770;2023-07-29T04:22:19;7.28;;;4.50;;
32613;SDS011;19031;51.400;6.770;2023-07-29T04:24:47;7.25;;;4.35;;
32613;SDS011;19031;51.400;6.770;2023-07-29T04:27:13;5.72;;;4.47;;
32613;SDS011;19031;51.400;6.770;2023-07-29T04:29:39;8.30;;;4.15;;
32613;SDS011;19031;51.400;6.770;2023-07-29T04:32:06;8.10;;;5.00;;
32613;SDS011;19031;51.400;6.770;2023-07-29T04:34:32;11.93;;;4.65;;
32613;SDS011;19031;51.400;6.770;2023-07-29T04:36:58;5.20;;;4.63;;
32613;SDS011;19031;51.400;6.770;2023-07-29T04:39:23;5.85;;;4.78;;
32613;SDS011;19031;51.400;6.770;2023-07-29T04:41:49;9.05;;;5.07;;
32613;SDS011;19031;51.400;6.770;2023-07-29T04:44:15;8.38;;;4.75;;
32613;SDS011;19031;51.400;6.770;2023-07-29T04:46:40;7.20;;;5.47;;
32613;SDS011;19031;51.400;6.770;2023-07-29T04:49:06;6.63;;;5.85;;
32613;SDS011;19031;51.400;6.770;2023-07-29T04:51:31;14.15;;;6.60;;
32613;SDS011;19031;51.400;6.770;2023-07-29T04:53:57;7.95;;;5.43;;
32613;SDS011;19031;51.400;6.770;2023-07-29T04:56:23;9.65;;;6.10;;
32613;SDS011;19031;51.400;6.770;2023-07-29T04:58:49;9.52;;;6.53;;
32613;SDS011;19031;51.400;6.770;2023-07-29T05:01:15;9.18;;;6.35;;
32613;SDS011;19031;51.400;6.770;2023-07-29T05:03:41;9.35;;;6.28;;
32613;SDS011;19031;51.400;6.770;2023-07-29T05:06:06;12.77;;;6.20;;
32613;SDS011;19031;51.400;6.770;2023-07-29T05:08:32;5.63;;;4.35;;
32613;SDS011;19031;51.400;6.770;2023-07-29T05:10:58;9.18;;;5.88;;
32613;SDS011;19031;51.400;6.770;2023-07-29T05:13:24;5.32;;;3.90;;
32613;SDS011;19031;51.400;6.770;2023-07-29T05:15:50;8.85;;;5.80;;
32613;SDS011;19031;51.400;6.770;2023-07-29T05:18:16;7.25;;;4.72;;
32613;SDS011;19031;51.400;6.770;2023-07-29T05:20:42;6.35;;;4.95;;
32613;SDS011;19031;51.400;6.770;2023-07-29T05:23:11;6.65;;;4.88;;
32613;SDS011;19031;51.400;6.770;2023-07-29T05:25:37;7.00;;;5.07;;
32613;SDS011;19031;51.400;6.770;2023-07-29T05:28:05;7.15;;;4.72;;
32613;SDS011;19031;51.400;6.770;2023-07-29T05:30:32;5.38;;;3.65;;
32613;SDS011;19031;51.400;6.770;2023-07-29T05:32:59;5.13;;;2.90;;
32613;SDS011;19031;51.400;6.770;2023-07-29T05:35:25;6.00;;;3.40;;
32613;SDS011;19031;51.400;6.770;2023-07-29T05:37:50;6.03;;;3.17;;
32613;SDS011;19031;51.400;6.770;2023-07-29T05:40:16;4.25;;;2.88;;
32613;SDS011;19031;51.400;6.770;2023-07-29T05:42:42;3.95;;;2.65;;
32613;SDS011;19031;51.400;6.770;2023-07-29T05:45:07;4.38;;;2.10;;
32613;SDS011;19031;51.400;6.770;2023-07-29T05:47:33;6.45;;;1.92;;
32613;SDS011;19031;51.400;6.770;2023-07-29T05:49:59;3.03;;;2.05;;
32613;SDS011;19031;51.400;6.770;2023-07-29T05:52:31;4.78;;;2.13;;
32613;SDS011;19031;51.400;6.770;2023-07-29T05:54:57;4.20;;;2.40;;
32613;SDS011;19031;51.400;6.770;2023-07-29T05:57:23;5.40;;;2.30;;
32613;SDS011;19031;51.400;6.770;2023-07-29T05:59:48;3.92;;;2.25;;
32613;SDS011;19031;51.400;6.770;2023-07-29T06:02:14;4.35;;;2.47;;
32613;SDS011;19031;51.400;6.770;2023-07-29T06:04:40;6.70;;;2.30;;
32613;SDS011;19031;51.400;6.770;2023-07-29T06:07:05;8.65;;;2.63;;
32613;SDS011;19031;51.400;6.770;2023-07-29T06:09:34;4.03;;;2.33;;
32613;SDS011;19031;51.400;6.770;2023-07-29T06:12:00;4.10;;;2.50;;
32613;SDS011;19031;51.400;6.770;2023-07-29T06:14:25;4.18;;;2.80;;
32613;SDS011;19031;51.400;6.770;2023-07-29T06:16:51;6.03;;;2.67;;
32613;SDS011;19031;51.400;6.770;2023-07-29T06:19:17;4.40;;;2.30;;
32613;SDS011;19031;51.400;6.770;2023-07-29T06:21:45;4.22;;;2.22;;
32613;SDS011;19031;51.400;6.770;2023-07-29T06:24:10;6.05;;;2.47;;
32613;SDS011;19031;51.400;6.770;2023-07-29T06:26:38;3.55;;;1.90;;
32613;SDS011;19031;51.400;6.770;2023-07-29T06:29:04;7.00;;;2.05;;
32613;SDS011;19031;51.400;6.770;2023-07-29T06:31:29;3.95;;;1.85;;
32613;SDS011;19031;51.400;6.770;2023-07-29T06:33:57;4.88;;;2.30;;
32613;SDS011;19031;51.400;6.770;2023-07-29T06:36:23;6.28;;;2.00;;
32613;SDS011;19031;51.400;6.770;2023-07-29T06:38:48;4.95;;;2.08;;
32613;SDS011;19031;51.400;6.770;2023-07-29T06:41:14;2.25;;;1.63;;
32613;SDS011;19031;51.400;6.770;2023-07-29T06:43:40;2.28;;;1.58;;
32613;SDS011;19031;51.400;6.770;2023-07-29T06:46:05;2.97;;;1.50;;
32613;SDS011;19031;51.400;6.770;2023-07-29T06:48:31;1.73;;;1.38;;
32613;SDS011;19031;51.400;6.770;2023-07-29T06:50:57;1.80;;;1.23;;
32613;SDS011;19031;51.400;6.770;2023-07-29T06:53:27;2.65;;;1.50;;
32613;SDS011;19031;51.400;6.770;2023-07-29T06:55:55;4.00;;;1.15;;
32613;SDS011;19031;51.400;6.770;2023-07-29T06:58:21;3.60;;;1.55;;
32613;SDS011;19031;51.400;6.770;2023-07-29T07:00:47;4.22;;;1.60;;
32613;SDS011;19031;51.400;6.770;2023-07-29T07:03:13;2.53;;;1.27;;
32613;SDS011;19031;51.400;6.770;2023-07-29T07:05:38;1.98;;;1.23;;
32613;SDS011;19031;51.400;6.770;2023-07-29T07:08:06;3.78;;;1.50;;
32613;SDS011;19031;51.400;6.770;2023-07-29T07:10:32;2.42;;;1.20;;
32613;SDS011;19031;51.400;6.770;2023-07-29T07:12:58;2.00;;;1.13;;
32613;SDS011;19031;51.400;6.770;2023-07-29T07:15:26;2.15;;;1.15;;
32613;SDS011;19031;51.400;6.770;2023-07-29T07:17:52;8.15;;;1.17;;
32613;SDS011;19031;51.400;6.770;2023-07-29T07:20:17;2.50;;;1.30;;
32613;SDS011;19031;51.400;6.770;2023-07-29T07:22:43;1.50;;;0.98;;
32613;SDS011;19031;51.400;6.770;2023-07-29T07:25:12;1.42;;;0.80;;
32613;SDS011;19031;51.400;6.770;2023-07-29T07:27:37;2.03;;;0.80;;
32613;SDS011;19031;51.400;6.770;2023-07-29T07:30:03;1.50;;;0.98;;
32613;SDS011;19031;51.400;6.770;2023-07-29T07:32:32;3.60;;;1.23;;
32613;SDS011;19031;51.400;6.770;2023-07-29T07:34:58;3.58;;;0.90;;
32613;SDS011;19031;51.400;6.770;2023-07-29T07:37:23;1.80;;;0.90;;
32613;SDS011;19031;51.400;6.770;2023-07-29T07:39:49;0.73;;;0.65;;
32613;SDS011;19031;51.400;6.770;2023-07-29T07:42:15;2.00;;;0.82;;
32613;SDS011;19031;51.400;6.770;2023-07-29T07:44:40;2.30;;;0.98;;
32613;SDS011;19031;51.400;6.770;2023-07-29T07:47:06;3.03;;;0.70;;
32613;SDS011;19031;51.400;6.770;2023-07-29T07:49:32;2.17;;;0.75;;
32613;SDS011;19031;51.400;6.770;2023-07-29T07:51:57;1.52;;;0.70;;
32613;SDS011;19031;51.400;6.770;2023-07-29T07:54:23;3.28;;;0.98;;
32613;SDS011;19031;51.400;6.770;2023-07-29T07:56:48;1.70;;;0.70;;
32613;SDS011;19031;51.400;6.770;2023-07-29T07:59:14;2.15;;;0.65;;
32613;SDS011;19031;51.400;6.770;2023-07-29T08:01:40;1.38;;;0.60;;
32613;SDS011;19031;51.400;6.770;2023-07-29T08:04:06;1.13;;;0.70;;
32613;SDS011;19031;51.400;6.770;2023-07-29T08:06:32;0.70;;;0.50;;
32613;SDS011;19031;51.400;6.770;2023-07-29T08:09:01;0.80;;;0.57;;
32613;SDS011;19031;51.400;6.770;2023-07-29T08:11:27;0.40;;;0.40;;
32613;SDS011;19031;51.400;6.770;2023-07-29T08:13:55;0.75;;;0.50;;
32613;SDS011;19031;51.400;6.770;2023-07-29T08:16:21;1.05;;;0.52;;
32613;SDS011;19031;51.400;6.770;2023-07-29T08:18:46;1.63;;;0.77;;
32613;SDS011;19031;51.400;6.770;2023-07-29T08:21:12;1.30;;;0.50;;
32613;SDS011;19031;51.400;6.770;2023-07-29T08:23:37;2.70;;;0.65;;
32613;SDS011;19031;51.400;6.770;2023-07-29T08:26:04;2.05;;;0.63;;
32613;SDS011;19031;51.400;6.770;2023-07-29T08:28:37;2.58;;;0.40;;
32613;SDS011;19031;51.400;6.770;2023-07-29T08:31:04;1.50;;;0.50;;
32613;SDS011;19031;51.400;6.770;2023-07-29T08:33:31;0.82;;;0.57;;
32613;SDS011;19031;51.400;6.770;2023-07-29T08:35:59;2.17;;;0.85;;
32613;SDS011;19031;51.400;6.770;2023-07-29T08:38:25;0.80;;;0.50;;
32613;SDS011;19031;51.400;6.770;2023-07-29T08:43:52;1.02;;;0.70;;
32613;SDS011;19031;51.400;6.770;2023-07-29T08:46:25;2.03;;;0.80;;
32613;SDS011;19031;51.400;6.770;2023-07-29T08:48:52;1.63;;;0.75;;
32613;SDS011;19031;51.400;6.770;2023-07-29T08:51:21;1.88;;;0.85;;
32613;SDS011;19031;51.400;6.770;2023-07-29T08:53:49;2.78;;;0.80;;
32613;SDS011;19031;51.400;6.770;2023-07-29T08:56:15;1.10;;;0.68;;
32613;SDS011;19031;51.400;6.770;2023-07-29T08:58:41;3.00;;;0.90;;
32613;SDS011;19031;51.400;6.770;2023-07-29T09:01:08;2.00;;;0.88;;
32613;SDS011;19031;51.400;6.770;2023-07-29T09:03:36;4.20;;;1.23;;
32613;SDS011;19031;51.400;6.770;2023-07-29T09:06:02;1.10;;;0.85;;
32613;SDS011;19031;51.400;6.770;2023-07-29T09:08:31;2.63;;;0.85;;
32613;SDS011;19031;51.400;6.770;2023-07-29T09:10:58;0.90;;;0.60;;
32613;SDS011;19031;51.400;6.770;2023-07-29T09:13:24;1.67;;;0.70;;
32613;SDS011;19031;51.400;6.770;2023-07-29T09:15:53;4.13;;;0.50;;
32613;SDS011;19031;51.400;6.770;2023-07-29T09:18:21;1.00;;;0.60;;
32613;SDS011;19031;51.400;6.770;2023-07-29T09:20:47;1.23;;;0.70;;
32613;SDS011;19031;51.400;6.770;2023-07-29T09:23:20;1.00;;;0.60;;
32613;SDS011;19031;51.400;6.770;2023-07-29T09:25:46;1.48;;;0.70;;
32613;SDS011;19031;51.400;6.770;2023-07-29T09:28:15;0.85;;;0.60;;
32613;SDS011;19031;51.400;6.770;2023-07-29T09:30:42;0.85;;;0.60;;
32613;SDS011;19031;51.400;6.770;2023-07-29T09:33:11;1.38;;;0.73;;
32613;SDS011;19031;51.400;6.770;2023-07-29T09:35:37;1.10;;;0.77;;
32613;SDS011;19031;51.400;6.770;2023-07-29T09:38:06;1.00;;;0.60;;
32613;SDS011;19031;51.400;6.770;2023-07-29T09:40:36;2.05;;;0.82;;
32613;SDS011;19031;51.400;6.770;2023-07-29T09:43:04;2.78;;;1.27;;
32613;SDS011;19031;51.400;6.770;2023-07-29T09:45:32;2.33;;;0.98;;
32613;SDS011;19031;51.400;6.770;2023-07-29T09:48:02;5.18;;;0.93;;
32613;SDS011;19031;51.400;6.770;2023-07-29T09:50:30;1.40;;;0.85;;
32613;SDS011;19031;51.400;6.770;2023-07-29T09:52:56;4.13;;;0.98;;
32613;SDS011;19031;51.400;6.770;2023-07-29T09:55:28;1.10;;;0.73;;
32613;SDS011;19031;51.400;6.770;2023-07-29T09:57:57;1.70;;;0.70;;
32613;SDS011;19031;51.400;6.770;2023-07-29T10:00:30;1.17;;;0.70;;
32613;SDS011;19031;51.400;6.770;2023-07-29T10:02:57;1.85;;;0.70;;
32613;SDS011;19031;51.400;6.770;2023-07-29T10:05:28;2.45;;;0.68;;
32613;SDS011;19031;51.400;6.770;2023-07-29T10:07:57;3.28;;;1.00;;
32613;SDS011;19031;51.400;6.770;2023-07-29T10:10:23;1.35;;;0.50;;
32613;SDS011;19031;51.400;6.770;2023-07-29T10:12:49;1.35;;;0.77;;
32613;SDS011;19031;51.400;6.770;2023-07-29T10:15:16;0.75;;;0.63;;
32613;SDS011;19031;51.400;6.770;2023-07-29T10:17:43;1.23;;;0.70;;
32613;SDS011;19031;51.400;6.770;2023-07-29T10:20:10;2.20;;;0.70;;
32613;SDS011;19031;51.400;6.770;2023-07-29T10:22:37;3.13;;;1.25;;
32613;SDS011;19031;51.400;6.770;2023-07-29T10:25:07;1.42;;;0.85;;
32613;SDS011;19031;51.400;6.770;2023-07-29T10:27:52;1.83;;;1.10;;
32613;SDS011;19031;51.400;6.770;2023-07-29T10:30:23;1.00;;;0.82;;
32613;SDS011;19031;51.400;6.770;2023-07-29T10:32:50;1.63;;;0.88;;
32613;SDS011;19031;51.400;6.770;2023-07-29T10:35:21;3.05;;;1.02;;
32613;SDS011;19031;51.400;6.770;2023-07-29T10:37:46;2.40;;;1.00;;
32613;SDS011;19031;51.400;6.770;2023-07-29T10:40:19;6.07;;;0.80;;
32613;SDS011;19031;51.400;6.770;2023-07-29T10:45:40;1.58;;;0.93;;
32613;SDS011;19031;51.400;6.770;2023-07-29T10:48:10;1.63;;;1.00;;
32613;SDS011;19031;51.400;6.770;2023-07-29T10:50:36;2.72;;;0.80;;
32613;SDS011;19031;51.400;6.770;2023-07-29T10:53:02;3.83;;;1.00;;
32613;SDS011;19031;51.400;6.770;2023-07-29T10:55:29;2.53;;;1.10;;
32613;SDS011;19031;51.400;6.770;2023-07-29T11:00:38;3.08;;;0.75;;
32613;SDS011;19031;51.400;6.770;2023-07-29T11:03:08;2.80;;;0.90;;
32613;SDS011;19031;51.400;6.770;2023-07-29T11:05:45;2.58;;;1.00;;
32613;SDS011;19031;51.400;6.770;2023-07-29T11:08:21;1.70;;;0.75;;
32613;SDS011;19031;51.400;6.770;2023-07-29T11:10:58;1.10;;;0.68;;
32613;SDS011;19031;51.400;6.770;2023-07-29T11:13:31;1.20;;;0.90;;
32613;SDS011;19031;51.400;6.770;2023-07-29T11:16:02;2.10;;;0.80;;
32613;SDS011;19031;51.400;6.770;2023-07-29T11:18:29;2.28;;;1.05;;
32613;SDS011;19031;51.400;6.770;2023-07-29T11:20:59;5.07;;;1.00;;
32613;SDS011;19031;51.400;6.770;2023-07-29T11:23:35;1.95;;;0.95;;
32613;SDS011;19031;51.400;6.770;2023-07-29T11:26:02;1.95;;;1.02;;
32613;SDS011;19031;51.400;6.770;2023-07-29T11:28:29;0.70;;;0.60;;
32613;SDS011;19031;51.400;6.770;2023-07-29T11:30:55;1.65;;;0.60;;
32613;SDS011;19031;51.400;6.770;2023-07-29T11:33:22;2.42;;;1.00;;
32613;SDS011;19031;51.400;6.770;2023-07-29T11:35:50;1.48;;;0.90;;
32613;SDS011;19031;51.400;6.770;2023-07-29T11:38:16;2.92;;;0.77;;
32613;SDS011;19031;51.400;6.770;2023-07-29T11:40:43;1.17;;;0.80;;
32613;SDS011;19031;51.400;6.770;2023-07-29T11:43:21;2.33;;;0.85;;
32613;SDS011;19031;51.400;6.770;2023-07-29T11:45:47;1.13;;;0.70;;
32613;SDS011;19031;51.400;6.770;2023-07-29T11:48:12;1.38;;;0.93;;
32613;SDS011;19031;51.400;6.770;2023-07-29T11:50:38;3.00;;;1.02;;
32613;SDS011;19031;51.400;6.770;2023-07-29T11:53:04;3.53;;;0.93;;
32613;SDS011;19031;51.400;6.770;2023-07-29T11:55:30;1.80;;;1.02;;
32613;SDS011;19031;51.400;6.770;2023-07-29T11:57:58;3.42;;;1.30;;
32613;SDS011;19031;51.400;6.770;2023-07-29T12:00:26;4.38;;;1.60;;
32613;SDS011;19031;51.400;6.770;2023-07-29T12:02:52;4.03;;;1.58;;
32613;SDS011;19031;51.400;6.770;2023-07-29T12:05:18;6.07;;;2.10;;
32613;SDS011;19031;51.400;6.770;2023-07-29T12:07:47;3.63;;;1.55;;
32613;SDS011;19031;51.400;6.770;2023-07-29T12:10:13;3.13;;;1.13;;
32613;SDS011;19031;51.400;6.770;2023-07-29T12:12:48;2.55;;;0.90;;
32613;SDS011;19031;51.400;6.770;2023-07-29T12:15:28;1.45;;;1.08;;
32613;SDS011;19031;51.400;6.770;2023-07-29T12:17:54;3.95;;;1.10;;
32613;SDS011;19031;51.400;6.770;2023-07-29T12:20:21;2.00;;;1.27;;
32613;SDS011;19031;51.400;6.770;2023-07-29T12:22:56;2.53;;;1.27;;
32613;SDS011;19031;51.400;6.770;2023-07-29T12:25:23;1.98;;;1.15;;
32613;SDS011;19031;51.400;6.770;2023-07-29T12:27:49;2.20;;;1.10;;
32613;SDS011;19031;51.400;6.770;2023-07-29T12:30:14;1.23;;;0.85;;
32613;SDS011;19031;51.400;6.770;2023-07-29T12:32:44;2.00;;;1.00;;
32613;SDS011;19031;51.400;6.770;2023-07-29T12:35:10;1.85;;;0.85;;
32613;SDS011;19031;51.400;6.770;2023-07-29T12:37:35;0.85;;;0.70;;
32613;SDS011;19031;51.400;6.770;2023-07-29T12:40:03;2.85;;;1.15;;
32613;SDS011;19031;51.400;6.770;2023-07-29T12:42:29;3.85;;;0.90;;
32613;SDS011;19031;51.400;6.770;2023-07-29T12:44:55;1.90;;;0.93;;
32613;SDS011;19031;51.400;6.770;2023-07-29T12:47:21;3.88;;;0.93;;
32613;SDS011;19031;51.400;6.770;2023-07-29T12:49:46;1.48;;;0.80;;
32613;SDS011;19031;51.400;6.770;2023-07-29T12:52:12;1.50;;;0.73;;
32613;SDS011;19031;51.400;6.770;2023-07-29T12:54:37;1.60;;;0.85;;
32613;SDS011;19031;51.400;6.770;2023-07-29T12:57:05;0.88;;;0.77;;
32613;SDS011;19031;51.400;6.770;2023-07-29T12:59:31;3.22;;;1.17;;
32613;SDS011;19031;51.400;6.770;2023-07-29T13:01:57;1.52;;;0.85;;
32613;SDS011;19031;51.400;6.770;2023-07-29T13:04:25;1.65;;;1.02;;
32613;SDS011;19031;51.400;6.770;2023-07-29T13:06:51;4.43;;;1.10;;
32613;SDS011;19031;51.400;6.770;2023-07-29T13:09:19;2.65;;;1.27;;
32613;SDS011;19031;51.400;6.770;2023-07-29T13:11:45;1.58;;;1.00;;
32613;SDS011;19031;51.400;6.770;2023-07-29T13:14:11;1.55;;;1.00;;
32613;SDS011;19031;51.400;6.770;2023-07-29T13:16:37;1.50;;;1.00;;
32613;SDS011;19031;51.400;6.770;2023-07-29T13:19:03;2.75;;;0.80;;
32613;SDS011;19031;51.400;6.770;2023-07-29T13:21:28;2.10;;;0.80;;
32613;SDS011;19031;51.400;6.770;2023-07-29T13:23:54;5.53;;;1.10;;
32613;SDS011;19031;51.400;6.770;2023-07-29T13:26:20;1.00;;;0.77;;
32613;SDS011;19031;51.400;6.770;2023-07-29T13:28:46;1.33;;;0.80;;
32613;SDS011;19031;51.400;6.770;2023-07-29T13:31:21;2.00;;;0.98;;
32613;SDS011;19031;51.400;6.770;2023-07-29T13:33:47;1.40;;;0.80;;
32613;SDS011;19031;51.400;6.770;2023-07-29T13:36:13;3.30;;;1.17;;
32613;SDS011;19031;51.400;6.770;2023-07-29T13:38:44;4.00;;;1.20;;
32613;SDS011;19031;51.400;6.770;2023-07-29T13:41:10;1.95;;;0.90;;
32613;SDS011;19031;51.400;6.770;2023-07-29T13:43:38;1.50;;;1.15;;
32613;SDS011;19031;51.400;6.770;2023-07-29T13:46:04;4.30;;;1.23;;
32613;SDS011;19031;51.400;6.770;2023-07-29T13:48:29;2.90;;;1.05;;
32613;SDS011;19031;51.400;6.770;2023-07-29T13:50:55;3.05;;;1.20;;
32613;SDS011;19031;51.400;6.770;2023-07-29T13:53:20;1.58;;;1.05;;
32613;SDS011;19031;51.400;6.770;2023-07-29T13:55:46;2.20;;;1.40;;
32613;SDS011;19031;51.400;6.770;2023-07-29T13:58:15;3.97;;;1.67;;
32613;SDS011;19031;51.400;6.770;2023-07-29T14:00:41;3.42;;;1.20;;
32613;SDS011;19031;51.400;6.770;2023-07-29T14:03:06;4.15;;;1.40;;
32613;SDS011;19031;51.400;6.770;2023-07-29T14:05:32;2.42;;;1.30;;
32613;SDS011;19031;51.400;6.770;2023-07-29T14:07:58;7.38;;;1.85;;
32613;SDS011;19031;51.400;6.770;2023-07-29T14:10:24;5.03;;;1.50;;
32613;SDS011;19031;51.400;6.770;2023-07-29T14:12:50;4.57;;;1.65;;
32613;SDS011;19031;51.400;6.770;2023-07-29T14:15:15;4.97;;;1.80;;
32613;SDS011;19031;51.400;6.770;2023-07-29T14:17:41;2.80;;;1.45;;
32613;SDS011;19031;51.400;6.770;2023-07-29T14:20:10;2.95;;;1.55;;
32613;SDS011;19031;51.400;6.770;2023-07-29T14:22:36;2.53;;;1.73;;
32613;SDS011;19031;51.400;6.770;2023-07-29T14:25:01;2.33;;;1.60;;
32613;SDS011;19031;51.400;6.770;2023-07-29T14:27:27;3.28;;;1.77;;
32613;SDS011;19031;51.400;6.770;2023-07-29T14:29:53;5.88;;;1.52;;
32613;SDS011;19031;51.400;6.770;2023-07-29T14:32:19;2.30;;;1.50;;
32613;SDS011;19031;51.400;6.770;2023-07-29T14:34:45;1.98;;;1.38;;
32613;SDS011;19031;51.400;6.770;2023-07-29T14:37:14;2.10;;;1.50;;
32613;SDS011;19031;51.400;6.770;2023-07-29T14:39:39;2.72;;;1.33;;
32613;SDS011;19031;51.400;6.770;2023-07-29T14:42:05;2.33;;;1.50;;
32613;SDS011;19031;51.400;6.770;2023-07-29T14:44:34;3.45;;;1.60;;
32613;SDS011;19031;51.400;6.770;2023-07-29T14:46:59;2.83;;;1.73;;
32613;SDS011;19031;51.400;6.770;2023-07-29T14:49:25;8.90;;;1.90;;
32613;SDS011;19031;51.400;6.770;2023-07-29T14:51:51;3.33;;;1.70;;
32613;SDS011;19031;51.400;6.770;2023-07-29T14:54:16;2.58;;;1.52;;
32613;SDS011;19031;51.400;6.770;2023-07-29T14:56:42;3.80;;;1.63;;
32613;SDS011;19031;51.400;6.770;2023-07-29T14:59:07;2.15;;;1.08;;
32613;SDS011;19031;51.400;6.770;2023-07-29T15:01:33;3.78;;;1.35;;